createdAt,value
2019-01-29T00:00:32.071Z,8.53
2019-01-29T00:03:37.435Z,6.77
2019-01-29T00:06:42.701Z,11.23
2019-01-29T00:09:47.953Z,10.43
2019-01-29T00:12:54.973Z,13.27
2019-01-29T00:16:01.807Z,8.60
2019-01-29T00:19:06.998Z,8.97
2019-01-29T00:22:12.066Z,10.27
2019-01-29T00:25:17.294Z,7.10
2019-01-29T00:28:22.444Z,9.00
2019-01-29T00:31:28.434Z,9.53
2019-01-29T00:34:33.644Z,7.90
2019-01-29T00:37:38.775Z,10.70
2019-01-29T00:40:43.922Z,9.80
2019-01-29T00:43:52.211Z,5.97
2019-01-29T00:46:57.436Z,5.90
2019-01-29T00:50:02.595Z,6.40
2019-01-29T00:53:07.811Z,6.60
2019-01-29T00:56:12.887Z,7.10
2019-01-29T00:59:18.066Z,5.50
2019-01-29T01:02:23.215Z,6.67
2019-01-29T01:05:28.480Z,6.63
2019-01-29T01:08:33.574Z,5.40
2019-01-29T01:11:38.721Z,6.17
2019-01-29T01:14:48.694Z,8.63
2019-01-29T01:17:53.795Z,6.17
2019-01-29T01:20:58.922Z,8.53
2019-01-29T01:24:04.145Z,5.47
2019-01-29T01:27:09.296Z,6.47
2019-01-29T01:30:16.883Z,6.93
2019-01-29T01:33:22.006Z,8.40
2019-01-29T01:36:27.166Z,8.33
2019-01-29T01:39:33.163Z,8.03
2019-01-29T01:42:38.307Z,7.20
2019-01-29T01:45:43.423Z,7.30
2019-01-29T01:48:48.639Z,4.97
2019-01-29T01:51:53.867Z,7.00
2019-01-29T01:54:59.068Z,3.93
2019-01-29T01:58:04.166Z,5.77
2019-01-29T02:01:09.405Z,8.87
2019-01-29T02:04:14.515Z,4.37
2019-01-29T02:07:19.754Z,5.73
2019-01-29T02:10:27.556Z,9.17
2019-01-29T02:13:32.773Z,4.77
2019-01-29T02:16:37.933Z,4.77
2019-01-29T02:19:43.116Z,4.10
2019-01-29T02:22:48.233Z,5.87
2019-01-29T02:25:53.373Z,5.57
2019-01-29T02:28:58.524Z,7.73
2019-01-29T02:32:04.806Z,4.90
2019-01-29T02:35:10.245Z,5.30
2019-01-29T02:38:15.438Z,4.50
2019-01-29T02:41:20.598Z,4.70
2019-01-29T02:44:25.855Z,5.83
2019-01-29T02:47:30.970Z,4.97
2019-01-29T02:50:36.170Z,4.43
2019-01-29T02:53:41.400Z,5.30
2019-01-29T02:56:46.566Z,5.07
2019-01-29T02:59:51.783Z,7.03
2019-01-29T03:02:56.966Z,4.97
2019-01-29T03:06:02.117Z,7.83
2019-01-29T03:09:09.365Z,6.50
2019-01-29T03:12:14.506Z,4.67
2019-01-29T03:15:22.661Z,4.37
2019-01-29T03:18:28.801Z,9.10
2019-01-29T03:21:33.939Z,3.73
2019-01-29T03:24:39.126Z,7.70
2019-01-29T03:27:44.285Z,9.80
2019-01-29T03:30:49.429Z,2.80
2019-01-29T03:33:54.580Z,5.97
2019-01-29T03:36:59.658Z,4.40
2019-01-29T03:40:06.287Z,6.13
2019-01-29T03:43:11.400Z,3.63
2019-01-29T03:46:16.520Z,1.83
2019-01-29T03:49:29.557Z,6.27
2019-01-29T03:52:34.853Z,3.57
2019-01-29T03:55:40.145Z,4.30
2019-01-29T03:58:45.192Z,5.67
2019-01-29T04:01:50.313Z,7.90
2019-01-29T04:04:55.560Z,7.60
2019-01-29T04:08:00.680Z,7.10
2019-01-29T04:11:05.971Z,5.63
2019-01-29T04:14:11.055Z,7.67
2019-01-29T04:17:16.223Z,6.27
2019-01-29T04:20:21.631Z,7.07
2019-01-29T04:23:26.881Z,6.47
2019-01-29T04:26:32.381Z,5.10
2019-01-29T04:29:37.518Z,6.43
2019-01-29T04:32:42.731Z,5.67
2019-01-29T04:35:47.869Z,5.20
2019-01-29T04:38:53.028Z,4.50
2019-01-29T04:41:58.222Z,5.97
2019-01-29T04:45:03.904Z,7.27
2019-01-29T04:48:09.155Z,4.40
2019-01-29T04:51:15.327Z,7.17
2019-01-29T04:54:20.458Z,6.13
2019-01-29T04:57:25.668Z,6.70
2019-01-29T05:00:32.369Z,4.20
2019-01-29T05:03:37.521Z,4.43
2019-01-29T05:06:42.654Z,3.67
2019-01-29T05:09:47.759Z,3.93
2019-01-29T05:12:52.955Z,5.23
2019-01-29T05:15:58.068Z,4.00
2019-01-29T05:19:03.218Z,5.27
2019-01-29T05:22:08.296Z,7.37
2019-01-29T05:25:13.576Z,3.87
2019-01-29T05:28:21.014Z,5.00
2019-01-29T05:31:26.138Z,5.97
2019-01-29T05:34:31.247Z,4.23
2019-01-29T05:37:36.411Z,3.67
2019-01-29T05:40:41.643Z,4.67
2019-01-29T05:43:46.756Z,5.87
2019-01-29T05:46:51.924Z,6.57
2019-01-29T05:49:57.003Z,6.43
2019-01-29T05:53:02.141Z,4.80
2019-01-29T05:56:07.375Z,4.57
2019-01-29T05:59:12.526Z,4.07
2019-01-29T06:02:17.701Z,3.53
2019-01-29T06:05:22.877Z,4.17
2019-01-29T06:08:28.053Z,2.80
2019-01-29T06:11:33.176Z,2.60
2019-01-29T06:14:38.308Z,5.00
2019-01-29T06:17:43.467Z,4.37
2019-01-29T06:20:48.655Z,4.73
2019-01-29T06:23:53.933Z,7.70
2019-01-29T06:26:59.099Z,6.37
2019-01-29T06:30:05.232Z,5.23
2019-01-29T06:33:10.472Z,6.13
2019-01-29T06:36:15.588Z,4.73
2019-01-29T06:39:20.800Z,6.57
2019-01-29T06:42:25.974Z,5.40
2019-01-29T06:45:31.038Z,15.10
2019-01-29T06:48:36.127Z,4.17
2019-01-29T06:51:41.272Z,4.03
2019-01-29T06:54:46.399Z,5.00
2019-01-29T06:57:55.625Z,6.57
2019-01-29T07:00:58.653Z,6.97
2019-01-29T07:04:03.773Z,6.07
2019-01-29T07:07:08.908Z,8.00
2019-01-29T07:10:15.202Z,6.17
2019-01-29T07:13:20.355Z,4.03
2019-01-29T07:16:44.482Z,4.27
2019-01-29T07:19:52.246Z,6.53
2019-01-29T07:22:57.434Z,6.93
2019-01-29T07:26:02.548Z,5.77
2019-01-29T07:29:07.723Z,6.17
2019-01-29T07:32:12.949Z,4.60
2019-01-29T07:35:18.049Z,6.70
2019-01-29T07:38:23.156Z,4.80
2019-01-29T07:41:28.380Z,7.70
2019-01-29T07:44:33.572Z,8.10
2019-01-29T07:47:38.663Z,3.43
2019-01-29T07:50:43.846Z,5.67
2019-01-29T07:53:49.062Z,5.43
2019-01-29T07:56:54.249Z,8.07
2019-01-29T07:59:59.422Z,6.17
2019-01-29T08:03:04.763Z,5.23
2019-01-29T08:06:11.186Z,6.33
2019-01-29T08:09:16.341Z,5.83
2019-01-29T08:12:21.452Z,5.13
2019-01-29T08:15:26.722Z,4.13
2019-01-29T08:18:31.892Z,5.90
2019-01-29T08:21:37.110Z,3.90
2019-01-29T08:24:42.199Z,31.87
2019-01-29T08:27:47.445Z,21.80
2019-01-29T08:30:52.601Z,7.60
2019-01-29T08:33:57.784Z,7.37
2019-01-29T08:37:06.512Z,8.17
2019-01-29T08:40:11.883Z,4.30
2019-01-29T08:43:17.050Z,8.27
2019-01-29T08:46:23.450Z,9.43
2019-01-29T08:49:28.700Z,7.13
2019-01-29T08:52:33.882Z,9.07
2019-01-29T08:55:38.997Z,7.60
2019-01-29T08:58:44.197Z,7.13
2019-01-29T09:01:49.356Z,8.13
2019-01-29T09:04:54.472Z,9.27
2019-01-29T09:07:59.589Z,9.50
2019-01-29T09:11:04.846Z,8.63
2019-01-29T09:14:10.078Z,5.60
2019-01-29T09:17:15.275Z,8.87
2019-01-29T09:20:20.757Z,6.97
2019-01-29T09:23:25.933Z,5.07
2019-01-29T09:26:31.164Z,5.80
2019-01-29T09:29:36.450Z,6.17
2019-01-29T09:32:41.535Z,4.20
2019-01-29T09:35:46.684Z,9.93
2019-01-29T09:38:51.892Z,5.80
2019-01-29T09:41:57.161Z,4.13
2019-01-29T09:45:02.285Z,9.30
2019-01-29T09:48:07.700Z,5.63
2019-01-29T09:51:12.852Z,5.03
2019-01-29T09:54:18.050Z,6.10
2019-01-29T09:57:23.196Z,11.63
2019-01-29T10:00:33.312Z,8.93
2019-01-29T10:03:38.596Z,5.60
2019-01-29T10:06:43.685Z,7.27
2019-01-29T10:09:48.835Z,7.40
2019-01-29T10:12:54.014Z,6.73
2019-01-29T10:15:59.303Z,6.67
2019-01-29T10:19:04.671Z,5.10
2019-01-29T10:22:09.889Z,3.33
2019-01-29T10:25:15.655Z,4.37
2019-01-29T10:28:20.805Z,10.87
2019-01-29T10:31:25.969Z,6.77
2019-01-29T10:34:31.095Z,3.70
2019-01-29T10:37:36.212Z,4.57
2019-01-29T10:40:41.373Z,6.00
2019-01-29T10:43:46.557Z,4.50
2019-01-29T10:46:51.674Z,7.97
2019-01-29T10:49:56.772Z,5.77
2019-01-29T10:53:02.001Z,7.23
2019-01-29T10:56:07.134Z,3.47
2019-01-29T10:59:13.260Z,7.00
2019-01-29T11:02:18.394Z,5.77
2019-01-29T11:05:23.743Z,4.23
2019-01-29T11:08:28.938Z,5.67
2019-01-29T11:11:34.040Z,5.70
2019-01-29T11:14:39.201Z,6.53
2019-01-29T11:17:44.363Z,6.40
2019-01-29T11:20:49.661Z,4.83
2019-01-29T11:23:54.826Z,5.80
2019-01-29T11:26:59.999Z,3.80
2019-01-29T11:30:05.814Z,6.73
2019-01-29T11:33:11.033Z,6.30
2019-01-29T11:36:16.320Z,7.07
2019-01-29T11:39:21.447Z,6.53
2019-01-29T11:42:26.602Z,7.63
2019-01-29T11:45:52.097Z,8.03
2019-01-29T11:48:57.334Z,5.77
2019-01-29T11:52:02.447Z,6.70
2019-01-29T11:55:08.078Z,6.47
2019-01-29T11:58:13.289Z,5.87
2019-01-29T12:01:20.915Z,3.67
2019-01-29T12:04:26.089Z,15.93
2019-01-29T12:07:31.178Z,9.87
2019-01-29T12:10:36.285Z,6.63
2019-01-29T12:13:41.539Z,4.57
2019-01-29T12:16:46.677Z,5.80
2019-01-29T12:19:51.858Z,4.77
2019-01-29T12:22:56.998Z,4.07
2019-01-29T12:26:02.208Z,23.27
2019-01-29T12:29:07.343Z,8.80
2019-01-29T12:32:12.484Z,5.63
2019-01-29T12:35:17.643Z,9.03
2019-01-29T12:38:22.772Z,9.03
2019-01-29T12:41:27.915Z,7.10
2019-01-29T12:44:33.032Z,4.93
2019-01-29T12:47:38.188Z,5.30
2019-01-29T12:50:48.769Z,8.80
2019-01-29T12:53:53.918Z,3.83
2019-01-29T12:56:59.061Z,6.77
2019-01-29T13:00:04.681Z,5.83
2019-01-29T13:03:10.012Z,4.37
2019-01-29T13:06:15.153Z,6.73
2019-01-29T13:09:20.309Z,5.00
2019-01-29T13:12:25.502Z,6.20
2019-01-29T13:15:30.704Z,4.37
2019-01-29T13:18:35.797Z,7.13
2019-01-29T13:21:40.962Z,4.43
2019-01-29T13:24:46.127Z,8.77
2019-01-29T13:27:51.310Z,7.33
2019-01-29T13:30:56.440Z,5.10
2019-01-29T13:34:01.662Z,7.40
2019-01-29T13:37:06.858Z,8.90
2019-01-29T13:40:12.050Z,6.47
2019-01-29T13:43:17.211Z,4.77
2019-01-29T13:46:22.583Z,4.57
2019-01-29T13:49:28.964Z,4.50
2019-01-29T13:52:34.094Z,3.67
2019-01-29T13:55:39.299Z,3.77
2019-01-29T13:58:44.448Z,5.60
2019-01-29T14:01:49.577Z,6.43
2019-01-29T14:04:54.832Z,4.67
2019-01-29T14:07:59.939Z,5.67
2019-01-29T14:11:05.231Z,3.17
2019-01-29T14:14:10.487Z,6.27
2019-01-29T14:17:15.680Z,7.73
2019-01-29T14:20:20.797Z,6.50
2019-01-29T14:23:26.011Z,5.80
2019-01-29T14:26:31.130Z,5.97
2019-01-29T14:29:36.347Z,6.97
2019-01-29T14:32:41.511Z,12.30
2019-01-29T14:35:46.834Z,6.03
2019-01-29T14:39:51.060Z,8.53
2019-01-29T14:42:56.259Z,6.27
2019-01-29T14:46:01.427Z,5.67
2019-01-29T14:49:06.655Z,5.77
2019-01-29T14:52:11.868Z,4.80
2019-01-29T14:55:16.930Z,8.20
2019-01-29T14:58:22.042Z,5.20
2019-01-29T15:01:27.748Z,7.40
2019-01-29T15:04:32.861Z,6.40
2019-01-29T15:07:38.100Z,5.20
2019-01-29T15:10:43.327Z,6.73
2019-01-29T15:13:48.497Z,8.87
2019-01-29T15:17:11.271Z,10.43
2019-01-29T15:20:16.453Z,7.97
2019-01-29T15:23:21.649Z,9.23
2019-01-29T15:26:26.941Z,8.57
2019-01-29T15:29:32.122Z,8.87
2019-01-29T15:32:37.302Z,8.97
2019-01-29T15:35:42.485Z,7.50
2019-01-29T15:38:47.690Z,9.40
2019-01-29T15:41:52.825Z,6.23
2019-01-29T15:44:58.959Z,5.43
2019-01-29T15:48:04.592Z,7.03
2019-01-29T15:51:09.771Z,5.77
2019-01-29T15:54:14.907Z,7.77
2019-01-29T15:57:20.088Z,8.57
2019-01-29T16:00:27.603Z,9.13
2019-01-29T16:03:32.722Z,8.60
2019-01-29T16:06:37.918Z,11.10
2019-01-29T16:09:43.104Z,8.00
2019-01-29T16:12:48.263Z,7.83
2019-01-29T16:15:53.374Z,7.37
2019-01-29T16:18:58.584Z,12.37
2019-01-29T16:22:03.749Z,11.10
2019-01-29T16:25:11.082Z,10.30
2019-01-29T16:28:16.241Z,10.57
2019-01-29T16:31:21.418Z,11.10
2019-01-29T16:34:26.627Z,13.83
2019-01-29T16:37:31.837Z,13.40
2019-01-29T16:40:38.305Z,13.30
2019-01-29T16:43:43.593Z,10.13
2019-01-29T16:46:48.909Z,9.90
2019-01-29T16:49:54.034Z,12.27
2019-01-29T16:52:59.496Z,11.60
2019-01-29T16:56:04.937Z,13.83
2019-01-29T16:59:10.259Z,16.53
2019-01-29T17:02:15.591Z,11.87
2019-01-29T17:05:20.837Z,10.20
2019-01-29T17:08:26.107Z,11.73
2019-01-29T17:11:31.269Z,9.40
2019-01-29T17:14:36.585Z,8.77
2019-01-29T17:17:41.836Z,14.80
2019-01-29T17:20:47.220Z,11.33
2019-01-29T17:23:52.443Z,10.97
2019-01-29T17:26:57.628Z,12.83
2019-01-29T17:30:02.699Z,10.70
2019-01-29T17:33:10.250Z,10.27
2019-01-29T17:36:16.353Z,12.37
2019-01-29T17:39:21.539Z,18.70
2019-01-29T17:42:26.688Z,18.70
2019-01-29T17:45:34.140Z,16.77
2019-01-29T17:48:39.334Z,15.97
2019-01-29T17:51:44.589Z,18.33
2019-01-29T17:54:49.729Z,16.17
2019-01-29T17:57:54.939Z,18.60
2019-01-29T18:01:01.604Z,19.47
2019-01-29T18:04:06.750Z,14.10
2019-01-29T18:07:11.918Z,15.77
2019-01-29T18:10:17.285Z,23.40
2019-01-29T18:13:22.425Z,25.60
2019-01-29T18:16:27.584Z,16.80
2019-01-29T18:19:32.719Z,13.77
2019-01-29T18:22:39.040Z,16.80
2019-01-29T18:25:44.199Z,19.73
2019-01-29T18:28:49.420Z,15.83
2019-01-29T18:31:54.619Z,15.60
2019-01-29T18:34:59.861Z,20.43
2019-01-29T18:38:05.184Z,19.50
2019-01-29T18:41:10.391Z,21.87
2019-01-29T18:44:15.616Z,19.03
2019-01-29T18:47:20.803Z,16.70
2019-01-29T18:50:26.044Z,18.17
2019-01-29T18:53:31.224Z,18.13
2019-01-29T18:56:36.443Z,20.97
2019-01-29T18:59:41.641Z,20.00
2019-01-29T19:02:47.024Z,23.40
2019-01-29T19:05:52.181Z,17.60
2019-01-29T19:08:57.387Z,22.70
2019-01-29T19:12:02.604Z,18.07
2019-01-29T19:15:10.465Z,19.37
2019-01-29T19:18:15.664Z,27.63
2019-01-29T19:21:20.823Z,34.73
2019-01-29T19:24:26.167Z,33.03
2019-01-29T19:27:31.393Z,40.53
2019-01-29T19:30:36.712Z,34.77
2019-01-29T19:33:41.968Z,47.37
2019-01-29T19:36:47.155Z,42.97
2019-01-29T19:39:52.380Z,41.73
2019-01-29T19:42:57.618Z,49.73
2019-01-29T19:46:02.858Z,42.03
2019-01-29T19:49:08.074Z,38.97
2019-01-29T19:52:13.363Z,37.63
2019-01-29T19:55:18.907Z,36.60
2019-01-29T19:58:32.018Z,45.50
2019-01-29T20:01:30.988Z,31.60
2019-01-29T20:04:36.130Z,29.93
2019-01-29T20:07:41.338Z,35.07
2019-01-29T20:10:46.450Z,25.90
2019-01-29T20:13:51.701Z,28.77
2019-01-29T20:16:56.949Z,29.00
2019-01-29T20:20:02.238Z,36.67
2019-01-29T20:23:08.570Z,38.53
2019-01-29T20:26:13.896Z,34.17
2019-01-29T20:29:19.107Z,35.17
2019-01-29T20:32:24.537Z,37.17
2019-01-29T20:35:30.870Z,32.03
2019-01-29T20:38:40.761Z,45.90
2019-01-29T20:41:46.171Z,64.43
2019-01-29T20:44:51.421Z,63.47
2019-01-29T20:47:56.610Z,71.73
2019-01-29T20:51:01.808Z,68.53
2019-01-29T20:54:07.131Z,67.87
2019-01-29T20:57:12.298Z,49.00
2019-01-29T21:00:20.172Z,44.17
2019-01-29T21:03:25.519Z,43.83
2019-01-29T21:06:30.769Z,42.83
2019-01-29T21:09:35.943Z,48.83
2019-01-29T21:12:41.123Z,42.23
2019-01-29T21:15:46.333Z,34.43
2019-01-29T21:18:51.488Z,36.80
2019-01-29T21:21:56.670Z,34.83
2019-01-29T21:25:01.882Z,38.17
2019-01-29T21:28:07.350Z,36.83
2019-01-29T21:31:12.487Z,38.30
2019-01-29T21:34:17.673Z,39.67
2019-01-29T21:37:22.839Z,37.87
2019-01-29T21:40:28.244Z,37.20
2019-01-29T21:43:33.464Z,36.63
2019-01-29T21:46:38.740Z,39.07
2019-01-29T21:49:43.867Z,28.07
2019-01-29T21:52:49.059Z,30.70
2019-01-29T21:55:54.232Z,30.37
2019-01-29T21:58:59.388Z,35.30
2019-01-29T22:02:04.799Z,37.23
2019-01-29T22:05:11.631Z,31.47
2019-01-29T22:08:16.800Z,33.70
2019-01-29T22:11:22.067Z,39.77
2019-01-29T22:14:27.262Z,39.57
2019-01-29T22:17:32.403Z,43.93
2019-01-29T22:20:37.619Z,40.67
2019-01-29T22:23:42.788Z,43.80
2019-01-29T22:26:48.085Z,49.57
2019-01-29T22:29:53.313Z,44.90
2019-01-29T22:32:58.482Z,68.90
2019-01-29T22:36:03.645Z,219.70
2019-01-29T22:39:09.765Z,72.83
2019-01-29T22:42:14.905Z,174.50
2019-01-29T22:45:20.318Z,172.67
2019-01-29T22:48:25.498Z,258.30
2019-01-29T22:51:30.828Z,356.80
2019-01-29T22:54:35.949Z,304.63
2019-01-29T22:57:41.177Z,348.20
2019-01-29T23:00:59.813Z,255.97
2019-01-29T23:04:32.044Z,185.47
2019-01-29T23:07:38.968Z,166.43
2019-01-29T23:10:44.115Z,144.60
2019-01-29T23:13:49.330Z,328.73
2019-01-29T23:16:54.544Z,198.43
2019-01-29T23:19:59.642Z,115.93
2019-01-29T23:23:04.826Z,106.03
2019-01-29T23:26:09.985Z,91.03
2019-01-29T23:29:17.151Z,146.20
2019-01-29T23:32:22.217Z,76.77
2019-01-29T23:35:27.332Z,278.17
2019-01-29T23:38:32.502Z,88.23
2019-01-29T23:41:37.724Z,121.93
2019-01-29T23:44:42.890Z,120.90
2019-01-29T23:47:49.728Z,121.07
2019-01-29T23:50:54.988Z,66.33
2019-01-29T23:54:00.138Z,108.20
2019-01-29T23:57:05.434Z,90.60
